sensor_id;sensor_type;location;lat;lon;timestamp;P1;durP1;ratioP1;P2;durP2;ratioP2
81697;SDS011;71109;52.514;5.708;2024-02-04T00:00:52;54.53;;;20.45;;
81697;SDS011;71109;52.514;5.708;2024-02-04T00:03:18;54.70;;;20.48;;
81697;SDS011;71109;52.514;5.708;2024-02-04T00:05:44;61.25;;;21.48;;
81697;SDS011;71109;52.514;5.708;2024-02-04T00:08:09;50.83;;;20.13;;
81697;SDS011;71109;52.514;5.708;2024-02-04T00:10:35;57.27;;;19.80;;
81697;SDS011;71109;52.514;5.708;2024-02-04T00:13:00;54.72;;;18.15;;
81697;SDS011;71109;52.514;5.708;2024-02-04T00:15:26;57.55;;;16.85;;
81697;SDS011;71109;52.514;5.708;2024-02-04T00:17:51;58.65;;;15.75;;
81697;SDS011;71109;52.514;5.708;2024-02-04T00:20:16;58.13;;;16.47;;
81697;SDS011;71109;52.514;5.708;2024-02-04T00:22:42;37.03;;;14.63;;
81697;SDS011;71109;52.514;5.708;2024-02-04T00:25:07;44.00;;;15.57;;
81697;SDS011;71109;52.514;5.708;2024-02-04T00:27:36;43.67;;;14.98;;
81697;SDS011;71109;52.514;5.708;2024-02-04T00:30:02;48.07;;;16.47;;
81697;SDS011;71109;52.514;5.708;2024-02-04T00:32:27;41.00;;;15.82;;
81697;SDS011;71109;52.514;5.708;2024-02-04T00:34:53;41.20;;;15.02;;
81697;SDS011;71109;52.514;5.708;2024-02-04T00:37:18;44.97;;;16.63;;
81697;SDS011;71109;52.514;5.708;2024-02-04T00:39:44;52.05;;;17.80;;
81697;SDS011;71109;52.514;5.708;2024-02-04T00:42:09;49.25;;;16.88;;
81697;SDS011;71109;52.514;5.708;2024-02-04T00:44:35;52.08;;;15.52;;
81697;SDS011;71109;52.514;5.708;2024-02-04T00:47:00;41.30;;;14.88;;
81697;SDS011;71109;52.514;5.708;2024-02-04T00:49:26;51.03;;;16.27;;
81697;SDS011;71109;52.514;5.708;2024-02-04T00:51:52;38.03;;;15.73;;
81697;SDS011;71109;52.514;5.708;2024-02-04T00:54:17;39.00;;;14.63;;
81697;SDS011;71109;52.514;5.708;2024-02-04T00:56:43;41.38;;;15.07;;
81697;SDS011;71109;52.514;5.708;2024-02-04T00:59:08;34.08;;;13.73;;
81697;SDS011;71109;52.514;5.708;2024-02-04T01:01:33;39.50;;;17.10;;
81697;SDS011;71109;52.514;5.708;2024-02-04T01:04:04;51.75;;;15.85;;
81697;SDS011;71109;52.514;5.708;2024-02-04T01:06:30;44.73;;;15.97;;
81697;SDS011;71109;52.514;5.708;2024-02-04T01:08:58;44.70;;;15.50;;
81697;SDS011;71109;52.514;5.708;2024-02-04T01:11:23;32.22;;;13.18;;
81697;SDS011;71109;52.514;5.708;2024-02-04T01:13:49;33.37;;;12.37;;
81697;SDS011;71109;52.514;5.708;2024-02-04T01:16:14;33.03;;;10.70;;
81697;SDS011;71109;52.514;5.708;2024-02-04T01:18:40;21.98;;;9.10;;
81697;SDS011;71109;52.514;5.708;2024-02-04T01:21:05;29.60;;;9.27;;
81697;SDS011;71109;52.514;5.708;2024-02-04T01:23:30;33.33;;;9.38;;
81697;SDS011;71109;52.514;5.708;2024-02-04T01:25:56;24.43;;;7.40;;
81697;SDS011;71109;52.514;5.708;2024-02-04T01:28:21;23.77;;;8.95;;
81697;SDS011;71109;52.514;5.708;2024-02-04T01:30:46;23.58;;;7.88;;
81697;SDS011;71109;52.514;5.708;2024-02-04T01:33:12;28.08;;;7.20;;
81697;SDS011;71109;52.514;5.708;2024-02-04T01:35:37;25.73;;;8.98;;
81697;SDS011;71109;52.514;5.708;2024-02-04T01:38:03;18.10;;;5.47;;
81697;SDS011;71109;52.514;5.708;2024-02-04T01:40:28;16.80;;;6.13;;
81697;SDS011;71109;52.514;5.708;2024-02-04T01:42:54;12.52;;;4.32;;
81697;SDS011;71109;52.514;5.708;2024-02-04T01:45:19;16.23;;;5.40;;
81697;SDS011;71109;52.514;5.708;2024-02-04T01:47:45;22.20;;;5.30;;
81697;SDS011;71109;52.514;5.708;2024-02-04T01:50:10;16.42;;;3.88;;
81697;SDS011;71109;52.514;5.708;2024-02-04T01:52:36;20.88;;;5.53;;
81697;SDS011;71109;52.514;5.708;2024-02-04T01:55:03;27.75;;;4.22;;
81697;SDS011;71109;52.514;5.708;2024-02-04T01:57:30;13.95;;;4.70;;
81697;SDS011;71109;52.514;5.708;2024-02-04T01:59:56;13.50;;;3.28;;
81697;SDS011;71109;52.514;5.708;2024-02-04T02:02:22;14.43;;;4.18;;
81697;SDS011;71109;52.514;5.708;2024-02-04T02:04:48;16.92;;;5.75;;
81697;SDS011;71109;52.514;5.708;2024-02-04T02:07:13;15.77;;;3.80;;
81697;SDS011;71109;52.514;5.708;2024-02-04T02:09:42;18.58;;;3.35;;
81697;SDS011;71109;52.514;5.708;2024-02-04T02:12:09;30.00;;;5.47;;
81697;SDS011;71109;52.514;5.708;2024-02-04T02:14:37;15.60;;;3.45;;
81697;SDS011;71109;52.514;5.708;2024-02-04T02:17:09;11.10;;;2.88;;
81697;SDS011;71109;52.514;5.708;2024-02-04T02:19:56;13.82;;;3.95;;
81697;SDS011;71109;52.514;5.708;2024-02-04T02:22:29;15.07;;;4.53;;
81697;SDS011;71109;52.514;5.708;2024-02-04T02:24:58;17.33;;;3.80;;
81697;SDS011;71109;52.514;5.708;2024-02-04T02:27:26;17.17;;;2.72;;
81697;SDS011;71109;52.514;5.708;2024-02-04T02:29:52;14.90;;;3.17;;
81697;SDS011;71109;52.514;5.708;2024-02-04T02:32:17;12.85;;;2.47;;
81697;SDS011;71109;52.514;5.708;2024-02-04T02:34:43;13.48;;;4.13;;
81697;SDS011;71109;52.514;5.708;2024-02-04T02:39:58;23.25;;;4.75;;
81697;SDS011;71109;52.514;5.708;2024-02-04T02:42:30;16.85;;;5.22;;
81697;SDS011;71109;52.514;5.708;2024-02-04T02:44:56;11.52;;;5.28;;
81697;SDS011;71109;52.514;5.708;2024-02-04T02:47:22;17.33;;;5.78;;
81697;SDS011;71109;52.514;5.708;2024-02-04T02:49:50;18.73;;;5.63;;
81697;SDS011;71109;52.514;5.708;2024-02-04T02:52:16;21.27;;;5.70;;
81697;SDS011;71109;52.514;5.708;2024-02-04T02:54:41;12.83;;;4.40;;
81697;SDS011;71109;52.514;5.708;2024-02-04T02:57:07;17.88;;;5.43;;
81697;SDS011;71109;52.514;5.708;2024-02-04T02:59:32;15.02;;;4.40;;
81697;SDS011;71109;52.514;5.708;2024-02-04T03:01:59;16.45;;;5.05;;
81697;SDS011;71109;52.514;5.708;2024-02-04T03:04:24;12.30;;;3.75;;
81697;SDS011;71109;52.514;5.708;2024-02-04T03:06:50;11.57;;;4.03;;
81697;SDS011;71109;52.514;5.708;2024-02-04T03:09:15;11.23;;;4.28;;
81697;SDS011;71109;52.514;5.708;2024-02-04T03:11:40;12.85;;;3.60;;
81697;SDS011;71109;52.514;5.708;2024-02-04T03:14:06;23.23;;;3.35;;
81697;SDS011;71109;52.514;5.708;2024-02-04T03:16:31;8.63;;;3.30;;
81697;SDS011;71109;52.514;5.708;2024-02-04T03:18:57;11.27;;;2.92;;
81697;SDS011;71109;52.514;5.708;2024-02-04T03:21:22;17.30;;;3.72;;
81697;SDS011;71109;52.514;5.708;2024-02-04T03:23:48;11.73;;;3.28;;
81697;SDS011;71109;52.514;5.708;2024-02-04T03:26:16;24.58;;;3.47;;
81697;SDS011;71109;52.514;5.708;2024-02-04T03:28:45;12.45;;;3.47;;
81697;SDS011;71109;52.514;5.708;2024-02-04T03:31:10;11.35;;;3.13;;
81697;SDS011;71109;52.514;5.708;2024-02-04T03:33:36;21.05;;;6.80;;
81697;SDS011;71109;52.514;5.708;2024-02-04T03:36:01;20.50;;;3.73;;
81697;SDS011;71109;52.514;5.708;2024-02-04T03:38:30;16.10;;;3.55;;
81697;SDS011;71109;52.514;5.708;2024-02-04T03:40:55;15.68;;;3.65;;
81697;SDS011;71109;52.514;5.708;2024-02-04T03:43:21;14.18;;;4.53;;
81697;SDS011;71109;52.514;5.708;2024-02-04T03:45:46;22.42;;;4.25;;
81697;SDS011;71109;52.514;5.708;2024-02-04T03:48:11;15.43;;;3.95;;
81697;SDS011;71109;52.514;5.708;2024-02-04T03:50:37;20.70;;;3.72;;
81697;SDS011;71109;52.514;5.708;2024-02-04T03:53:02;18.30;;;4.53;;
81697;SDS011;71109;52.514;5.708;2024-02-04T03:55:28;19.40;;;3.85;;
81697;SDS011;71109;52.514;5.708;2024-02-04T03:57:54;21.08;;;4.68;;
81697;SDS011;71109;52.514;5.708;2024-02-04T04:00:20;17.63;;;4.55;;
81697;SDS011;71109;52.514;5.708;2024-02-04T04:02:45;18.30;;;4.90;;
81697;SDS011;71109;52.514;5.708;2024-02-04T04:05:11;23.05;;;4.78;;
81697;SDS011;71109;52.514;5.708;2024-02-04T04:07:38;17.73;;;4.03;;
81697;SDS011;71109;52.514;5.708;2024-02-04T04:10:04;15.77;;;2.47;;
81697;SDS011;71109;52.514;5.708;2024-02-04T04:12:30;15.07;;;3.63;;
81697;SDS011;71109;52.514;5.708;2024-02-04T04:14:55;15.17;;;4.07;;
81697;SDS011;71109;52.514;5.708;2024-02-04T04:17:21;8.15;;;2.53;;
81697;SDS011;71109;52.514;5.708;2024-02-04T04:19:46;12.25;;;3.40;;
81697;SDS011;71109;52.514;5.708;2024-02-04T04:22:11;8.90;;;2.90;;
81697;SDS011;71109;52.514;5.708;2024-02-04T04:24:38;12.70;;;3.30;;
81697;SDS011;71109;52.514;5.708;2024-02-04T04:27:03;13.10;;;2.60;;
81697;SDS011;71109;52.514;5.708;2024-02-04T04:29:28;13.07;;;2.38;;
81697;SDS011;71109;52.514;5.708;2024-02-04T04:31:54;9.38;;;2.55;;
81697;SDS011;71109;52.514;5.708;2024-02-04T04:34:19;5.90;;;2.92;;
81697;SDS011;71109;52.514;5.708;2024-02-04T04:36:47;11.27;;;2.45;;
81697;SDS011;71109;52.514;5.708;2024-02-04T04:39:12;15.60;;;2.70;;
81697;SDS011;71109;52.514;5.708;2024-02-04T04:41:39;12.00;;;2.40;;
81697;SDS011;71109;52.514;5.708;2024-02-04T04:44:08;18.35;;;3.75;;
81697;SDS011;71109;52.514;5.708;2024-02-04T04:46:37;18.25;;;2.78;;
81697;SDS011;71109;52.514;5.708;2024-02-04T04:49:02;13.65;;;2.67;;
81697;SDS011;71109;52.514;5.708;2024-02-04T04:51:28;15.88;;;3.53;;
81697;SDS011;71109;52.514;5.708;2024-02-04T04:53:53;9.88;;;2.15;;
81697;SDS011;71109;52.514;5.708;2024-02-04T04:56:18;9.02;;;3.13;;
81697;SDS011;71109;52.514;5.708;2024-02-04T04:58:44;13.27;;;2.35;;
81697;SDS011;71109;52.514;5.708;2024-02-04T05:01:09;10.80;;;2.10;;
81697;SDS011;71109;52.514;5.708;2024-02-04T05:03:35;6.65;;;1.45;;
81697;SDS011;71109;52.514;5.708;2024-02-04T05:06:00;13.90;;;1.90;;
81697;SDS011;71109;52.514;5.708;2024-02-04T05:08:26;13.63;;;2.10;;
81697;SDS011;71109;52.514;5.708;2024-02-04T05:10:51;10.35;;;2.28;;
81697;SDS011;71109;52.514;5.708;2024-02-04T05:13:17;18.00;;;2.97;;
81697;SDS011;71109;52.514;5.708;2024-02-04T05:15:42;4.45;;;1.67;;
81697;SDS011;71109;52.514;5.708;2024-02-04T05:18:08;11.75;;;2.67;;
81697;SDS011;71109;52.514;5.708;2024-02-04T05:20:33;8.15;;;1.70;;
81697;SDS011;71109;52.514;5.708;2024-02-04T05:22:59;3.58;;;1.63;;
81697;SDS011;71109;52.514;5.708;2024-02-04T05:25:25;5.68;;;1.33;;
81697;SDS011;71109;52.514;5.708;2024-02-04T05:27:51;17.70;;;2.22;;
81697;SDS011;71109;52.514;5.708;2024-02-04T05:30:17;15.23;;;2.80;;
81697;SDS011;71109;52.514;5.708;2024-02-04T05:32:42;12.93;;;1.77;;
81697;SDS011;71109;52.514;5.708;2024-02-04T05:35:09;17.98;;;1.92;;
81697;SDS011;71109;52.514;5.708;2024-02-04T05:37:35;18.70;;;1.90;;
81697;SDS011;71109;52.514;5.708;2024-02-04T05:40:00;14.63;;;2.00;;
81697;SDS011;71109;52.514;5.708;2024-02-04T05:42:26;10.35;;;2.22;;
81697;SDS011;71109;52.514;5.708;2024-02-04T05:44:51;12.82;;;2.03;;
81697;SDS011;71109;52.514;5.708;2024-02-04T05:47:17;10.07;;;1.90;;
81697;SDS011;71109;52.514;5.708;2024-02-04T05:49:43;11.38;;;1.90;;
81697;SDS011;71109;52.514;5.708;2024-02-04T05:52:09;8.93;;;2.45;;
81697;SDS011;71109;52.514;5.708;2024-02-04T05:54:38;5.43;;;1.45;;
81697;SDS011;71109;52.514;5.708;2024-02-04T05:57:06;16.85;;;2.22;;
81697;SDS011;71109;52.514;5.708;2024-02-04T05:59:32;15.77;;;1.80;;
81697;SDS011;71109;52.514;5.708;2024-02-04T06:01:58;17.58;;;2.38;;
81697;SDS011;71109;52.514;5.708;2024-02-04T06:04:23;13.00;;;1.90;;
81697;SDS011;71109;52.514;5.708;2024-02-04T06:06:49;16.98;;;2.80;;
81697;SDS011;71109;52.514;5.708;2024-02-04T06:09:14;8.40;;;2.53;;
81697;SDS011;71109;52.514;5.708;2024-02-04T06:11:40;17.85;;;2.35;;
81697;SDS011;71109;52.514;5.708;2024-02-04T06:14:05;15.50;;;2.80;;
81697;SDS011;71109;52.514;5.708;2024-02-04T06:16:31;7.00;;;1.45;;
81697;SDS011;71109;52.514;5.708;2024-02-04T06:18:59;10.70;;;2.30;;
81697;SDS011;71109;52.514;5.708;2024-02-04T06:21:25;5.78;;;2.00;;
81697;SDS011;71109;52.514;5.708;2024-02-04T06:23:50;17.48;;;2.85;;
81697;SDS011;71109;52.514;5.708;2024-02-04T06:26:15;15.60;;;2.25;;
81697;SDS011;71109;52.514;5.708;2024-02-04T06:28:41;10.95;;;1.90;;
81697;SDS011;71109;52.514;5.708;2024-02-04T06:31:10;11.75;;;3.00;;
81697;SDS011;71109;52.514;5.708;2024-02-04T06:33:36;12.60;;;2.33;;
81697;SDS011;71109;52.514;5.708;2024-02-04T06:36:01;11.52;;;2.15;;
81697;SDS011;71109;52.514;5.708;2024-02-04T06:38:27;13.45;;;3.25;;
81697;SDS011;71109;52.514;5.708;2024-02-04T06:40:52;9.30;;;4.63;;
81697;SDS011;71109;52.514;5.708;2024-02-04T06:43:17;6.88;;;1.63;;
81697;SDS011;71109;52.514;5.708;2024-02-04T06:45:43;13.23;;;2.00;;
81697;SDS011;71109;52.514;5.708;2024-02-04T06:48:08;11.05;;;1.92;;
81697;SDS011;71109;52.514;5.708;2024-02-04T06:50:34;16.98;;;2.95;;
81697;SDS011;71109;52.514;5.708;2024-02-04T06:53:00;13.65;;;1.88;;
81697;SDS011;71109;52.514;5.708;2024-02-04T06:55:25;9.32;;;1.75;;
81697;SDS011;71109;52.514;5.708;2024-02-04T06:57:51;11.27;;;2.20;;
81697;SDS011;71109;52.514;5.708;2024-02-04T07:00:16;14.48;;;1.98;;
81697;SDS011;71109;52.514;5.708;2024-02-04T07:02:42;18.73;;;2.40;;
81697;SDS011;71109;52.514;5.708;2024-02-04T07:05:07;18.50;;;1.98;;
81697;SDS011;71109;52.514;5.708;2024-02-04T07:07:33;5.97;;;2.83;;
81697;SDS011;71109;52.514;5.708;2024-02-04T07:09:59;11.32;;;2.20;;
81697;SDS011;71109;52.514;5.708;2024-02-04T07:12:24;12.85;;;2.30;;
81697;SDS011;71109;52.514;5.708;2024-02-04T07:14:49;14.50;;;2.38;;
81697;SDS011;71109;52.514;5.708;2024-02-04T07:17:15;9.13;;;2.00;;
81697;SDS011;71109;52.514;5.708;2024-02-04T07:19:40;9.40;;;1.83;;
81697;SDS011;71109;52.514;5.708;2024-02-04T07:22:06;5.15;;;1.55;;
81697;SDS011;71109;52.514;5.708;2024-02-04T07:24:31;9.70;;;1.70;;
81697;SDS011;71109;52.514;5.708;2024-02-04T07:26:57;8.60;;;2.00;;
81697;SDS011;71109;52.514;5.708;2024-02-04T07:29:22;8.27;;;1.77;;
81697;SDS011;71109;52.514;5.708;2024-02-04T07:31:48;11.20;;;1.97;;
81697;SDS011;71109;52.514;5.708;2024-02-04T07:34:13;6.63;;;2.20;;
81697;SDS011;71109;52.514;5.708;2024-02-04T07:36:39;5.25;;;1.85;;
81697;SDS011;71109;52.514;5.708;2024-02-04T07:39:05;8.65;;;2.15;;
81697;SDS011;71109;52.514;5.708;2024-02-04T07:41:30;4.68;;;1.40;;
81697;SDS011;71109;52.514;5.708;2024-02-04T07:43:58;6.03;;;2.15;;
81697;SDS011;71109;52.514;5.708;2024-02-04T07:46:24;9.00;;;2.00;;
81697;SDS011;71109;52.514;5.708;2024-02-04T07:48:49;11.40;;;2.00;;
81697;SDS011;71109;52.514;5.708;2024-02-04T07:51:14;8.63;;;2.17;;
81697;SDS011;71109;52.514;5.708;2024-02-04T07:53:40;5.30;;;1.60;;
81697;SDS011;71109;52.514;5.708;2024-02-04T07:56:05;4.00;;;1.80;;
81697;SDS011;71109;52.514;5.708;2024-02-04T07:58:32;5.03;;;1.08;;
81697;SDS011;71109;52.514;5.708;2024-02-04T08:00:58;8.13;;;3.00;;
81697;SDS011;71109;52.514;5.708;2024-02-04T08:03:23;4.85;;;1.45;;
81697;SDS011;71109;52.514;5.708;2024-02-04T08:05:48;4.57;;;1.20;;
81697;SDS011;71109;52.514;5.708;2024-02-04T08:08:14;5.70;;;1.35;;
81697;SDS011;71109;52.514;5.708;2024-02-04T08:10:42;4.93;;;1.83;;
81697;SDS011;71109;52.514;5.708;2024-02-04T08:13:07;3.63;;;1.00;;
81697;SDS011;71109;52.514;5.708;2024-02-04T08:15:32;7.87;;;1.77;;
81697;SDS011;71109;52.514;5.708;2024-02-04T08:17:58;1.50;;;1.07;;
81697;SDS011;71109;52.514;5.708;2024-02-04T08:20:23;4.65;;;1.17;;
81697;SDS011;71109;52.514;5.708;2024-02-04T08:22:48;7.88;;;1.83;;
81697;SDS011;71109;52.514;5.708;2024-02-04T08:25:14;3.03;;;1.63;;
81697;SDS011;71109;52.514;5.708;2024-02-04T08:27:40;4.53;;;1.65;;
81697;SDS011;71109;52.514;5.708;2024-02-04T08:30:05;5.53;;;1.57;;
81697;SDS011;71109;52.514;5.708;2024-02-04T08:32:31;10.82;;;1.80;;
81697;SDS011;71109;52.514;5.708;2024-02-04T08:34:56;2.97;;;1.58;;
81697;SDS011;71109;52.514;5.708;2024-02-04T08:37:22;5.43;;;1.93;;
81697;SDS011;71109;52.514;5.708;2024-02-04T08:39:47;6.95;;;2.45;;
81697;SDS011;71109;52.514;5.708;2024-02-04T08:42:12;10.45;;;3.15;;
81697;SDS011;71109;52.514;5.708;2024-02-04T08:44:38;32.33;;;4.07;;
81697;SDS011;71109;52.514;5.708;2024-02-04T08:47:03;11.05;;;3.78;;
81697;SDS011;71109;52.514;5.708;2024-02-04T08:49:29;12.63;;;4.97;;
81697;SDS011;71109;52.514;5.708;2024-02-04T08:51:55;17.02;;;5.00;;
81697;SDS011;71109;52.514;5.708;2024-02-04T08:54:20;9.30;;;4.23;;
81697;SDS011;71109;52.514;5.708;2024-02-04T08:56:45;14.00;;;4.60;;
81697;SDS011;71109;52.514;5.708;2024-02-04T08:59:11;11.45;;;5.45;;
81697;SDS011;71109;52.514;5.708;2024-02-04T09:01:36;14.38;;;4.95;;
81697;SDS011;71109;52.514;5.708;2024-02-04T09:04:01;13.47;;;5.07;;
81697;SDS011;71109;52.514;5.708;2024-02-04T09:06:27;15.20;;;5.07;;
81697;SDS011;71109;52.514;5.708;2024-02-04T09:08:52;10.52;;;4.70;;
81697;SDS011;71109;52.514;5.708;2024-02-04T09:11:17;7.23;;;3.73;;
81697;SDS011;71109;52.514;5.708;2024-02-04T09:13:44;9.90;;;4.55;;
81697;SDS011;71109;52.514;5.708;2024-02-04T09:16:10;13.52;;;4.55;;
81697;SDS011;71109;52.514;5.708;2024-02-04T09:18:35;11.35;;;4.45;;
81697;SDS011;71109;52.514;5.708;2024-02-04T09:21:01;13.00;;;3.58;;
81697;SDS011;71109;52.514;5.708;2024-02-04T09:23:27;6.95;;;3.33;;
81697;SDS011;71109;52.514;5.708;2024-02-04T09:25:52;17.73;;;5.85;;
81697;SDS011;71109;52.514;5.708;2024-02-04T09:28:17;8.77;;;3.50;;
81697;SDS011;71109;52.514;5.708;2024-02-04T09:30:43;9.50;;;3.95;;
81697;SDS011;71109;52.514;5.708;2024-02-04T09:33:08;14.90;;;3.85;;
81697;SDS011;71109;52.514;5.708;2024-02-04T09:35:33;12.55;;;3.80;;
81697;SDS011;71109;52.514;5.708;2024-02-04T09:37:59;12.90;;;3.17;;
81697;SDS011;71109;52.514;5.708;2024-02-04T09:40:25;11.63;;;3.13;;
81697;SDS011;71109;52.514;5.708;2024-02-04T09:42:50;7.95;;;2.80;;
81697;SDS011;71109;52.514;5.708;2024-02-04T09:45:17;6.82;;;2.65;;
81697;SDS011;71109;52.514;5.708;2024-02-04T09:47:42;9.45;;;3.40;;
81697;SDS011;71109;52.514;5.708;2024-02-04T09:50:09;12.90;;;2.83;;
81697;SDS011;71109;52.514;5.708;2024-02-04T09:52:35;10.75;;;3.38;;
81697;SDS011;71109;52.514;5.708;2024-02-04T09:55:05;14.00;;;4.65;;
81697;SDS011;71109;52.514;5.708;2024-02-04T09:57:32;26.95;;;4.32;;
81697;SDS011;71109;52.514;5.708;2024-02-04T09:59:59;11.27;;;3.50;;
81697;SDS011;71109;52.514;5.708;2024-02-04T10:02:25;8.88;;;4.70;;
81697;SDS011;71109;52.514;5.708;2024-02-04T10:04:51;12.02;;;5.35;;
81697;SDS011;71109;52.514;5.708;2024-02-04T10:07:16;16.20;;;5.53;;
81697;SDS011;71109;52.514;5.708;2024-02-04T10:09:43;13.68;;;5.45;;
81697;SDS011;71109;52.514;5.708;2024-02-04T10:12:09;11.98;;;5.07;;
81697;SDS011;71109;52.514;5.708;2024-02-04T10:14:34;13.93;;;4.60;;
81697;SDS011;71109;52.514;5.708;2024-02-04T10:17:00;12.23;;;5.03;;
81697;SDS011;71109;52.514;5.708;2024-02-04T10:19:25;8.27;;;3.67;;
81697;SDS011;71109;52.514;5.708;2024-02-04T10:21:57;11.88;;;4.85;;
81697;SDS011;71109;52.514;5.708;2024-02-04T10:24:24;21.50;;;4.93;;
81697;SDS011;71109;52.514;5.708;2024-02-04T10:26:49;14.23;;;4.70;;
81697;SDS011;71109;52.514;5.708;2024-02-04T10:29:14;9.07;;;3.73;;
81697;SDS011;71109;52.514;5.708;2024-02-04T10:31:40;17.40;;;4.50;;
81697;SDS011;71109;52.514;5.708;2024-02-04T10:34:05;5.60;;;3.50;;
81697;SDS011;71109;52.514;5.708;2024-02-04T10:36:31;5.97;;;2.88;;
81697;SDS011;71109;52.514;5.708;2024-02-04T10:38:57;5.93;;;3.00;;
81697;SDS011;71109;52.514;5.708;2024-02-04T10:41:22;12.32;;;4.13;;
81697;SDS011;71109;52.514;5.708;2024-02-04T10:43:49;14.98;;;3.33;;
81697;SDS011;71109;52.514;5.708;2024-02-04T10:46:17;10.35;;;2.80;;
81697;SDS011;71109;52.514;5.708;2024-02-04T10:48:44;5.10;;;2.45;;
81697;SDS011;71109;52.514;5.708;2024-02-04T10:51:14;8.35;;;2.00;;
81697;SDS011;71109;52.514;5.708;2024-02-04T10:53:43;6.38;;;1.85;;
81697;SDS011;71109;52.514;5.708;2024-02-04T10:58:41;6.80;;;1.52;;
81697;SDS011;71109;52.514;5.708;2024-02-04T11:01:07;7.13;;;1.50;;
81697;SDS011;71109;52.514;5.708;2024-02-04T11:03:32;10.25;;;1.67;;
81697;SDS011;71109;52.514;5.708;2024-02-04T11:05:58;5.90;;;1.48;;
81697;SDS011;71109;52.514;5.708;2024-02-04T11:08:23;7.68;;;1.50;;
81697;SDS011;71109;52.514;5.708;2024-02-04T11:10:49;4.50;;;1.42;;
81697;SDS011;71109;52.514;5.708;2024-02-04T11:13:15;7.95;;;1.58;;
81697;SDS011;71109;52.514;5.708;2024-02-04T11:15:41;5.93;;;1.42;;
81697;SDS011;71109;52.514;5.708;2024-02-04T11:21:10;5.93;;;1.20;;
81697;SDS011;71109;52.514;5.708;2024-02-04T11:23:59;3.45;;;1.23;;
81697;SDS011;71109;52.514;5.708;2024-02-04T11:26:34;4.32;;;1.48;;
81697;SDS011;71109;52.514;5.708;2024-02-04T11:29:00;8.68;;;1.95;;
81697;SDS011;71109;52.514;5.708;2024-02-04T11:31:27;4.95;;;1.45;;
81697;SDS011;71109;52.514;5.708;2024-02-04T11:33:53;3.28;;;1.25;;
81697;SDS011;71109;52.514;5.708;2024-02-04T11:36:23;8.75;;;1.38;;
81697;SDS011;71109;52.514;5.708;2024-02-04T11:38:49;6.93;;;1.50;;
81697;SDS011;71109;52.514;5.708;2024-02-04T11:41:21;4.95;;;1.10;;
81697;SDS011;71109;52.514;5.708;2024-02-04T11:43:51;9.85;;;1.73;;
81697;SDS011;71109;52.514;5.708;2024-02-04T11:46:18;5.18;;;1.38;;
81697;SDS011;71109;52.514;5.708;2024-02-04T11:48:50;8.85;;;1.25;;
81697;SDS011;71109;52.514;5.708;2024-02-04T11:51:16;9.73;;;2.03;;
81697;SDS011;71109;52.514;5.708;2024-02-04T11:53:42;4.00;;;1.60;;
81697;SDS011;71109;52.514;5.708;2024-02-04T11:56:07;12.45;;;1.70;;
81697;SDS011;71109;52.514;5.708;2024-02-04T11:58:33;6.50;;;1.60;;
81697;SDS011;71109;52.514;5.708;2024-02-04T12:01:00;5.35;;;1.95;;
81697;SDS011;71109;52.514;5.708;2024-02-04T12:03:32;10.07;;;2.30;;
81697;SDS011;71109;52.514;5.708;2024-02-04T12:05:59;6.50;;;2.60;;
81697;SDS011;71109;52.514;5.708;2024-02-04T12:08:25;11.07;;;2.78;;
81697;SDS011;71109;52.514;5.708;2024-02-04T12:10:55;6.13;;;2.28;;
81697;SDS011;71109;52.514;5.708;2024-02-04T12:13:20;4.78;;;1.85;;
81697;SDS011;71109;52.514;5.708;2024-02-04T12:15:48;10.20;;;1.35;;
81697;SDS011;71109;52.514;5.708;2024-02-04T12:18:14;8.90;;;1.65;;
81697;SDS011;71109;52.514;5.708;2024-02-04T12:20:41;6.97;;;1.80;;
81697;SDS011;71109;52.514;5.708;2024-02-04T12:23:06;6.20;;;2.25;;
81697;SDS011;71109;52.514;5.708;2024-02-04T12:25:33;6.25;;;2.55;;
81697;SDS011;71109;52.514;5.708;2024-02-04T12:27:59;7.32;;;1.17;;
81697;SDS011;71109;52.514;5.708;2024-02-04T12:30:27;9.05;;;1.60;;
81697;SDS011;71109;52.514;5.708;2024-02-04T12:32:59;3.58;;;1.20;;
81697;SDS011;71109;52.514;5.708;2024-02-04T12:35:26;8.85;;;1.42;;
81697;SDS011;71109;52.514;5.708;2024-02-04T12:37:56;7.88;;;1.23;;
81697;SDS011;71109;52.514;5.708;2024-02-04T12:40:22;6.00;;;1.55;;
81697;SDS011;71109;52.514;5.708;2024-02-04T12:42:52;4.25;;;1.50;;
81697;SDS011;71109;52.514;5.708;2024-02-04T12:45:27;3.97;;;1.35;;
81697;SDS011;71109;52.514;5.708;2024-02-04T12:47:54;9.93;;;1.67;;
81697;SDS011;71109;52.514;5.708;2024-02-04T12:50:20;5.78;;;1.45;;
81697;SDS011;71109;52.514;5.708;2024-02-04T12:52:46;6.93;;;1.27;;
81697;SDS011;71109;52.514;5.708;2024-02-04T12:55:25;1.95;;;0.80;;
81697;SDS011;71109;52.514;5.708;2024-02-04T12:58:09;1.90;;;0.90;;
81697;SDS011;71109;52.514;5.708;2024-02-04T13:00:37;3.80;;;0.90;;
81697;SDS011;71109;52.514;5.708;2024-02-04T13:03:03;1.98;;;0.70;;
81697;SDS011;71109;52.514;5.708;2024-02-04T13:05:29;2.05;;;0.80;;
81697;SDS011;71109;52.514;5.708;2024-02-04T13:07:58;2.60;;;0.73;;
81697;SDS011;71109;52.514;5.708;2024-02-04T13:10:27;3.42;;;1.00;;
81697;SDS011;71109;52.514;5.708;2024-02-04T13:15:28;2.35;;;0.60;;
81697;SDS011;71109;52.514;5.708;2024-02-04T13:17:54;1.20;;;0.70;;
81697;SDS011;71109;52.514;5.708;2024-02-04T13:20:20;5.45;;;0.77;;
81697;SDS011;71109;52.514;5.708;2024-02-04T13:22:45;1.55;;;1.23;;
81697;SDS011;71109;52.514;5.708;2024-02-04T13:25:11;1.70;;;1.00;;
81697;SDS011;71109;52.514;5.708;2024-02-04T13:27:36;1.73;;;1.23;;
81697;SDS011;71109;52.514;5.708;2024-02-04T13:30:02;3.80;;;1.40;;
81697;SDS011;71109;52.514;5.708;2024-02-04T13:32:27;2.88;;;1.02;;
81697;SDS011;71109;52.514;5.708;2024-02-04T13:34:52;2.67;;;1.00;;
81697;SDS011;71109;52.514;5.708;2024-02-04T13:37:18;2.40;;;1.43;;
81697;SDS011;71109;52.514;5.708;2024-02-04T13:39:43;1.53;;;1.43;;
81697;SDS011;71109;52.514;5.708;2024-02-04T13:42:09;10.15;;;2.35;;
81697;SDS011;71109;52.514;5.708;2024-02-04T13:44:35;11.45;;;3.35;;
81697;SDS011;71109;52.514;5.708;2024-02-04T13:47:00;9.32;;;3.72;;
81697;SDS011;71109;52.514;5.708;2024-02-04T13:49:25;11.80;;;4.13;;
81697;SDS011;71109;52.514;5.708;2024-02-04T13:51:51;10.50;;;3.30;;
81697;SDS011;71109;52.514;5.708;2024-02-04T13:54:16;6.27;;;3.30;;
81697;SDS011;71109;52.514;5.708;2024-02-04T13:56:42;11.25;;;5.25;;
81697;SDS011;71109;52.514;5.708;2024-02-04T13:59:07;13.57;;;5.23;;
81697;SDS011;71109;52.514;5.708;2024-02-04T14:01:33;17.08;;;5.82;;
81697;SDS011;71109;52.514;5.708;2024-02-04T14:03:58;20.58;;;5.60;;
81697;SDS011;71109;52.514;5.708;2024-02-04T14:06:23;16.60;;;4.53;;
81697;SDS011;71109;52.514;5.708;2024-02-04T14:08:49;19.35;;;5.00;;
81697;SDS011;71109;52.514;5.708;2024-02-04T14:11:14;24.73;;;6.70;;
81697;SDS011;71109;52.514;5.708;2024-02-04T14:13:39;27.23;;;6.43;;
81697;SDS011;71109;52.514;5.708;2024-02-04T14:16:05;17.70;;;5.65;;
81697;SDS011;71109;52.514;5.708;2024-02-04T14:18:31;19.48;;;5.82;;
81697;SDS011;71109;52.514;5.708;2024-02-04T14:20:56;9.63;;;4.10;;
81697;SDS011;71109;52.514;5.708;2024-02-04T14:23:22;23.83;;;4.43;;
81697;SDS011;71109;52.514;5.708;2024-02-04T14:25:47;13.25;;;3.90;;
81697;SDS011;71109;52.514;5.708;2024-02-04T14:28:13;23.58;;;4.20;;
81697;SDS011;71109;52.514;5.708;2024-02-04T14:30:38;15.73;;;3.30;;
81697;SDS011;71109;52.514;5.708;2024-02-04T14:33:04;10.50;;;3.05;;
81697;SDS011;71109;52.514;5.708;2024-02-04T14:35:29;12.07;;;3.10;;
81697;SDS011;71109;52.514;5.708;2024-02-04T14:37:55;12.73;;;2.90;;
81697;SDS011;71109;52.514;5.708;2024-02-04T14:40:20;16.13;;;3.45;;
81697;SDS011;71109;52.514;5.708;2024-02-04T14:42:46;8.70;;;2.83;;